Tiempo atmosférico en la estación meteorológica de Tarancón, Cuenca (808 m.)



Fecha
DESCASC
Temp. máxima en grados centígrados (hora)
DESCASC
Temp. mínima en grados centígrados (hora)
DESCASC
Temp. media en grados centígrados
DESCASC
Racha de viento máxima en m/sg (hora)
DESCASC
Velocidad máxima media en intervalos de 10 minutos(hora)
DESCASC
Precipitaciones diarias en mm
DESCASC
Precipitaciones de 00:00 a 06:00 en mm
DESCASC
Precipitaciones de 06:00 a 12:00 en mm
DESCASC
Precipitaciones de 12:00 a 18:00 en mm
DESCASC
Precipitaciones de 18:00 a 24:00 en mm
DESCASC
23-06-2019 34.3 (17:10) 17.4 (07:10) 25.8 13.06 (23:59) 6.67 (23:50) 0 0 0 0 0
22-06-2019 32.6 (16:30) 16.6 (07:00) 24.6 10.83 (08:50) 5.56 (08:30) 0 0 0 0 0
21-06-2019 30.2 (17:20) 16.3 (07:30) 23.3 13.33 (14:40) 4.44 (17:50) 0 0 0 0 0
20-06-2019 29.1 (18:50) 15.6 (00:00) 22.4 10.83 (12:20) 4.72 (14:50) 0 0 0 0 0
19-06-2019 29.7 (17:00) 16.1 (00:00) 22.9 11.67 (16:40) 6.11 (16:40) 0 0 0 0 0
18-06-2019 31.5 (17:30) 17.4 (00:00) 24.4 13.61 (15:40) 7.78 (14:20) 0 0 0 0 0
17-06-2019 32.4 (17:10) 14.2 (00:00) 23.3 11.67 (18:00) 5.56 (15:20) 0 0 0 0 0
16-06-2019 30.4 (16:30) 14.9 (00:00) 22.6 10.83 (09:30) 5.83 (09:40) 0 0 0 0 0
15-06-2019 26.2 (18:00) 10.1 (00:00) 18.2 9.44 (01:10) 4.44 (04:00) 0 0 0 0 0
14-06-2019 26.4 (16:30) 14.4 (00:00) 20.4 14.72 (16:50) 7.22 (16:50) 0 0 0 0 0
13-06-2019 29 (17:40) 12.8 (00:00) 20.9 14.72 (19:20) 6.94 (03:10) 0 0 0 0 0
12-06-2019 26.5 (17:10) 8.9 (00:00) 17.7 11.11 (23:20) 5.28 (23:50) 0 0 0 0 0
11-06-2019 20.3 (18:30) 12.8 (00:00) 16.5 13.61 (12:50) 7.5 (12:50) 0 0 0 0 0
10-06-2019 27 (17:40) 13.3 (00:00) 20.2 11.67 (18:30) 5.83 (18:30) 0 0 0 0 0
09-06-2019 28.6 (16:50) 13.4 (00:00) 21 11.94 (14:40) 6.67 (14:50) 0 0 0 0 0
08-06-2019 28.8 (16:50) 13.1 (00:00) 20.9 15.28 (11:30) 7.78 (11:40) 0 0 0 0 0
07-06-2019 23 (18:30) 10.4 (00:00) 16.7 13.06 (06:50) 6.11 (05:20) 0 0 0 0 0
06-06-2019 25 (18:20) 9.7 (00:00) 17.3 15.28 (17:00) 7.78 (20:00) 0 0 0 0 0
05-06-2019 22.5 (17:20) 11.5 (00:00) 17 15.28 (12:10) 8.61 (08:30) 0 0 0 0 0
04-06-2019 30.5 (16:40) 18 (00:00) 24.3 16.11 (16:20) 9.17 (15:50) 0 0 0 0 0
03-06-2019 34.1 (17:30) 17.8 (00:00) 25.9 13.33 (17:00) 7.5 (17:10) 0 0 0 0 0
02-06-2019 35.1 (18:20) 15.4 (00:00) 25.2 11.67 (02:40) 6.11 (03:00) 0 0 0 0 0
01-06-2019 33.1 (17:00) 15.1 (00:00) 24.1 10.56 (01:20) 6.11 (02:10) 0 0 0 0 0
31-05-2019 32.5 (18:00) 15.1 (00:00) 23.8 8.89 (02:00) 5 (02:00) 0 0 0 0 0
30-05-2019 30.5 (17:40) 11.5 (00:00) 21 7.78 (18:30) 4.17 (18:30) 0 0 0 0 0
29-05-2019 24.9 (17:50) 8.5 (00:00) 16.7 15 (10:50) 8.33 (10:50) 0 0 0 0 0
28-05-2019 25.6 (18:10) 12 (00:00) 18.8 12.78 (20:20) 7.22 (20:40) -- 0 -- 0 0

Gráficas

Temp. máximas Temp. mínimas Temp. medias Precipitaciones Rachas de viento máximas Velocidades máximas media en intervalos de 10 minutos

Datos horarios

Fecha y hora oficial Temperatura (ºC) Velocidad del viento (km/h) Dirección del viento Racha (km/h) Dirección de racha Precipitación (mm) Presión (hPa) Tendencia (hPa) Humedad (%)
2019-06-26 23:00:00 27.7 24 Sudeste 48 Sudeste 0 924.3 1.6 33
2019-06-26 22:00:00 29.9 15 Sudeste 38 Sudeste 0 923.7 1.4 31
2019-06-26 21:00:00 32.4 17 Sudeste 35 Sudeste 0 923.1 0.4 28
2019-06-26 20:00:00 34 16 Sudeste 38 Sudeste 0 922.7 -0.4 25
2019-06-26 19:00:00 35.2 16 Sudeste 35 Sur 0 922.3 -1.5 21
2019-06-26 18:00:00 36.1 12 Sur 35 Sudoeste 0 922.7 -1.7 20
2019-06-26 17:00:00 35.9 14 Sudeste 35 Sur 0 923.1 -1.8 19
2019-06-26 16:00:00 35.2 12 Sudeste 40 Sudeste 0 923.8 -1.5 21
2019-06-26 15:00:00 33.5 12 Sur 33 Este 0 924.4 -1.1 24
2019-06-26 14:00:00 31.3 12 Sudeste 28 Sur 0 924.9 -0.6 25
2019-06-26 13:00:00 29.2 11 Sudeste 24 Sudeste 0 925.3 0 33
2019-06-26 12:00:00 27.1 12 Sur 26 Sur 0 925.5 0.6 40
2019-06-26 11:00:00 25.2 12 Sudeste 30 Sur 0 925.5 1.2 48
2019-06-26 10:00:00 23.3 15 Sudeste 27 Sudeste 0 925.3 1.3 53
2019-06-26 09:00:00 21.6 13 Sudeste 24 Sudeste 0 924.9 1.5 57
2019-06-26 08:00:00 19.6 13 Sudeste 25 Sudeste 0 924.3 0.8 67
2019-06-26 07:00:00 19.1 12 Sudeste 23 Sudeste 0 924 0.5 71
2019-06-26 06:00:00 19.6 12 Sudeste 25 Sur 0 923.4 -0.1 70
2019-06-26 05:00:00 20 13 Sudeste 37 Este 0 923.5 0 70
2019-06-26 04:00:00 20.7 17 Sudeste 35 Sudeste 0 923.5 0 68
2019-06-26 03:00:00 22 21 Sudeste 43 Sudeste 0 923.5 0.2 64
2019-06-26 02:00:00 23.4 18 Sudeste 43 Sudeste 0 923.5 0.7 54
2019-06-26 01:00:00 24.7 18 Sudeste 37 Sudeste 0 923.5 2 49
2019-06-26 00:00:00 26.9 16 Sudeste 29 Sudeste 0 923.3 2.1 40
2019-06-25 23:00:00 29 12 Sudeste 27 Sudeste 0 922.8 1.5 36
2019-06-25 22:00:00 31.2 3 Sur 15 Sudoeste 0 921.5 -0.1 24
2019-06-25 21:00:00 32.6 11 Sudoeste 21 Sudoeste 0 921.2 -0.7 22
2019-06-25 20:00:00 33.7 14 Sudoeste 31 Sudoeste 0 921.3 -1.1 21
2019-06-25 19:00:00 35 12 Sur 34 Sur 0 921.6 -1.2 19
2019-06-25 18:00:00 35.3 13 Sur 37 Sudoeste 0 921.9 -1.3 16
2019-06-25 17:00:00 34.7 11 Sudoeste 38 Sudoeste 0 922.4 -1.2 17
2019-06-25 16:00:00 34.2 12 Sur 30 Sudoeste 0 922.8 -1.3 18
2019-06-25 15:00:00 32.6 11 Sudoeste 29 Oeste 0 923.2 -0.9 22
2019-06-25 14:00:00 30.8 11 Sur 28 Sudoeste 0 923.6 -0.5 24
2019-06-25 13:00:00 29.6 9 Sur 21 Sudeste 0 924.1 -- 25
2019-06-25 12:00:00 27.8 9 Sur 18 Sudoeste 0 924.1 0.5 30
2019-06-25 11:00:00 25.4 -- -- -- -- -- 924.1 0.9 35
2019-06-25 10:00:00 -- -- -- -- -- -- -- -- --
2019-06-25 09:00:00 20.5 8 Sudeste 15 Sudeste 0 923.6 0.9 47
2019-06-25 08:00:00 18.8 8 Sudeste 14 Sudeste 0 923.2 0.6 52
2019-06-25 07:00:00 18.6 7 Sudeste 13 Sudeste 0 923.2 0.5 51
2019-06-25 06:00:00 19.8 4 Este 10 Sudeste 0 922.7 -0.1 53
2019-06-25 05:00:00 19.9 3 Nordeste 6 Nordeste 0 922.6 -0.1 59
2019-06-25 04:00:00 20.3 0 Calma 8 Sudoeste 0 922.7 0 55
2019-06-25 03:00:00 20.9 3 Oeste 14 Sudoeste 0 922.8 0.7 51
2019-06-25 02:00:00 22.6 7 Sur 16 Sur 0 922.7 1.1 44
2019-06-25 01:00:00 23.9 7 Sur 20 Sudeste 0 922.7 1.7 34
2019-06-25 00:00:00 24.6 10 Sudoeste 15 Sudoeste 0 922.1 1.6 29
2019-06-24 23:00:00 26.2 6 Sudoeste 14 Sudoeste 0 921.6 1.3 27
2019-06-24 22:00:00 27.8 9 Sudoeste 19 Sudoeste 0 921 0.8 24
2019-06-24 21:00:00 29.7 13 Sudoeste 31 Sudoeste 0 920.5 0.1 21
2019-06-24 20:00:00 30.6 18 Sudoeste 36 Sudoeste 0 920.3 -0.3 19
2019-06-24 19:00:00 31.5 18 Sudoeste 39 Sudoeste 0 920.2 -0.7 18
2019-06-24 18:00:00 32.7 14 Sudoeste 33 Sur 0 920.4 -0.8 18
2019-06-24 17:00:00 33.2 16 Sudoeste 30 Sudoeste 0 920.6 -1 19
2019-06-24 16:00:00 31.1 13 Sudoeste 31 Sur 0 920.9 -1 21
2019-06-24 15:00:00 29.9 10 Sudoeste 28 Sudoeste 0 921.2 -0.9 23
2019-06-24 14:00:00 29.5 12 Sudoeste 25 Sudoeste 0 921.6 -0.4 23
2019-06-24 13:00:00 27 10 Sur 23 Sudoeste 0 921.9 -0.1 27
2019-06-24 12:00:00 25 10 Sur 23 Sur 0 922.1 0.4 30
2019-06-24 11:00:00 24.5 10 Sur 27 Sudeste 0 922 0.6 29
2019-06-24 10:00:00 23.2 14 Sudeste 27 Sudeste 0 922 1 32
2019-06-24 09:00:00 21.1 13 Sudeste 29 Sudeste 0 921.7 0.8 38
2019-06-24 08:00:00 18.8 10 Sudeste 25 Sudeste 0 921.4 0.8 42
2019-06-24 07:00:00 18.4 14 Sudeste 33 Sur 0 921 0.5 42
2019-06-24 06:00:00 18.8 14 Sudeste 32 Sudeste 0 920.9 0 41
2019-06-24 05:00:00 19 16 Sudeste 44 Sudeste 0 920.6 -0.4 40
2019-06-24 04:00:00 20.1 21 Sudeste 49 Sudeste 0 920.5 -0.5 36
2019-06-24 03:00:00 21.1 26 Sudeste 49 Sudeste 0 920.9 0.1 33
2019-06-24 02:00:00 22.3 23 Sudeste 49 Sudeste 0 921 0.8 30
2019-06-24 01:00:00 23.6 19 Sudeste 48 Sudeste 0 921 1.6 25
2019-06-24 00:00:00 25.5 23 Sudeste 47 Sudeste 0 920.8 1.4 22
2019-06-23 23:00:00 27.6 17 Sudeste 33 Sudeste 0 920.2 0.9 25
2019-06-23 22:00:00 28.8 5 Sudeste 8 Sudeste 0 919.4 -0.1 22
2019-06-23 21:00:00 30.6 5 Sudoeste 15 Sudoeste 0 919.4 -0.5 19
2019-06-23 20:00:00 31.5 12 Sudoeste 21 Sudoeste 0 919.3 -1 18
2019-06-23 19:00:00 32.5 15 Sudoeste 29 Sudoeste 0 919.5 -1.3 16
2019-06-23 18:00:00 33 16 Sudoeste 31 Sudoeste 0 919.9 -1.4 15
2019-06-23 17:00:00 33.8 13 Sur 32 Sudoeste 0 920.3 -1.5 15
2019-06-23 16:00:00 32.9 10 Sur 31 Sur 0 920.8 -1.4 15
2019-06-23 15:00:00 32.3 11 Sur 31 Sudeste 0 921.3 -0.9 16
2019-06-23 14:00:00 30.7 11 Sudoeste 30 Sudeste 0 921.8 -0.5 18
2019-06-23 13:00:00 29.2 9 Sur 26 Sur 0 922.2 0.2 19
2019-06-23 12:00:00 27.1 11 Sur 30 Sur 0 922.2 0 22
2019-06-23 11:00:00 24.9 12 Sur 26 Sudeste 0 922.3 0.9 28
2019-06-23 10:00:00 22.3 15 Sur 28 Sudeste 0 922 0.9 34
2019-06-23 09:00:00 19.8 12 Sur 27 Sudeste 0 922.2 1.4 52
2019-06-23 08:00:00 17.8 15 Sudeste 28 Sudeste 0 921.4 0.7 61
2019-06-23 07:00:00 17.5 12 Sudeste 27 Sudeste 0 921.1 0.2 63
2019-06-23 06:00:00 18.2 13 Sudeste 33 Sudeste 0 920.8 -0.3 60
2019-06-23 05:00:00 18.8 15 Sudeste 31 Sudeste 0 920.7 -0.6 60
2019-06-23 04:00:00 19.8 17 Sudeste 29 Sudeste 0 920.9 -0.5 57
2019-06-23 03:00:00 20.9 12 Sudeste 30 Sudeste 0 921.1 -0.1 45
2019-06-23 02:00:00 21.9 13 Sudeste 33 Este 0 921.3 0.4 43
2019-06-23 01:00:00 22.7 9 Sur 21 Sudeste 0 921.4 0.9 47
2019-06-23 00:00:00 23.6 11 Sudeste 21 Sudeste 0 921.2 0.7 31
2019-06-22 23:00:00 25.1 3 Sudeste 10 Sudeste 0 920.9 0.4 20
2019-06-22 22:00:00 26.7 7 Sudeste 16 Sudeste 0 920.5 0 19
2019-06-22 21:00:00 28.3 8 Sur 24 Sur 0 920.5 -0.4 15
2019-06-22 20:00:00 29.7 10 Sur 29 Sur 0 920.5 -0.8 13
2019-06-22 19:00:00 30.9 10 Sur 29 Sur 0 920.5 -1.1 11
2019-06-22 18:00:00 30.9 12 Sudoeste 30 Sudoeste 0 920.9 -1.4 12
2019-06-22 17:00:00 30.7 15 Sur 33 Sur 0 921.3 -1.4 12
2019-06-22 16:00:00 30.7 10 Sudoeste 31 Sudoeste 0 921.6 -1.7 15
2019-06-22 15:00:00 30 9 Sudoeste 36 Sur 0 922.3 -1.3 16
2019-06-22 14:00:00 28.9 10 Sur 32 Sur 0 922.7 -0.9 18
2019-06-22 13:00:00 27.7 12 Sudeste 26 Sudeste 0 923.3 -0.4 28
2019-06-22 12:00:00 25.2 11 Sur 29 Sudeste 0 923.6 0 36
2019-06-22 11:00:00 23 14 Sudeste 30 Sudeste 0 923.6 0.2 50
2019-06-22 10:00:00 20.8 18 Sudeste 35 Sudeste 0 923.7 0.7 59
2019-06-22 09:00:00 18.8 19 Sudeste 39 Sudeste 0 923.6 0.8 65
2019-06-22 08:00:00 17.7 16 Sudeste 32 Sudeste 0 923.4 0.4 68
2019-06-22 07:00:00 16.7 14 Sudeste 27 Sudeste 0 923 -0.2 71
2019-06-22 06:00:00 17.1 16 Sudeste 31 Sudeste 0 922.8 -0.6 70
2019-06-22 05:00:00 17.6 14 Sudeste 28 Sudeste 0 923 -0.6 69
2019-06-22 04:00:00 18.2 14 Sudeste 29 Este 0 923.2 0.1 69
2019-06-22 03:00:00 18.9 13 Sudeste 27 Sudeste 0 923.4 0.6 63
2019-06-22 02:00:00 19.9 14 Sudeste 31 Sudeste 0 923.6 1.1 55
2019-06-22 01:00:00 20.3 6 Norte 17 Nordeste 0 923.1 1.2 42
2019-06-22 00:00:00 22.7 7 Este 17 Este 0 922.8 1.1 35
2019-06-21 23:00:00 23 9 Norte 21 Norte 0 922.5 1.1 22
2019-06-21 22:00:00 25 3 Noroeste 17 Noroeste 0 921.9 0.9 19
2019-06-21 21:00:00 26.9 7 Noroeste 24 Noroeste 0 921.7 0.6 15
2019-06-21 20:00:00 27.9 8 Noroeste 27 Noroeste 0 921.4 0.1 15
2019-06-21 19:00:00 29.2 9 Noroeste 36 Noroeste 0 921 -0.7 13
2019-06-21 18:00:00 30.2 7 Oeste 33 Oeste 0 921.1 -0.6 14
2019-06-21 17:00:00 29.7 8 Sudoeste 33 Noroeste 0 921.3 -0.7 15
2019-06-21 16:00:00 28.6 10 Noroeste 31 Oeste 0 921.7 -0.6 19
2019-06-21 15:00:00 27.6 10 Oeste 48 Noroeste 0 921.7 -0.7 21
2019-06-21 14:00:00 26.8 9 Oeste 32 Oeste 0 922 -0.2 23
2019-06-21 13:00:00 25.6 7 Oeste 25 Oeste 0 922.3 0.1 27
2019-06-21 12:00:00 24.6 8 Oeste 27 Oeste 0 922.4 0.5 29
2019-06-21 11:00:00 22.8 11 Sudoeste 22 Sudoeste 0 922.2 0.7 40
2019-06-21 10:00:00 19.9 3 Norte 9 Norte 0 922.2 1.1 51
2019-06-21 09:00:00 17.8 4 Noroeste 10 Noroeste 0 921.9 1.2 58
2019-06-21 08:00:00 16.5 7 Oeste 12 Oeste 0 921.5 0.9 57
2019-06-21 07:00:00 16.5 5 Oeste 19 Oeste 0 921.1 0.6 55
2019-06-21 06:00:00 17.7 6 Sudoeste 21 Oeste 0 920.7 0.1 51
2019-06-21 05:00:00 18.8 6 Oeste 21 Oeste 0 920.6 -0.2 48
2019-06-21 04:00:00 19.4 10 Oeste 20 Oeste 0 920.5 -0.4 46
2019-06-21 03:00:00 20 7 Oeste 21 Oeste 0 920.6 0 42
2019-06-21 02:00:00 21.1 10 Oeste 24 Oeste 0 920.8 0.7 39
2019-06-21 01:00:00 21.7 8 Oeste 24 Oeste 0 920.9 1.5 38
2019-06-21 00:00:00 22.3 12 Oeste 26 Oeste 0 920.6 1.5 36
2019-06-20 23:00:00 23.3 10 Oeste 26 Oeste 0 920.1 0.9 32
2019-06-20 22:00:00 24.6 9 Oeste 26 Oeste 0 919.4 0.3 29
2019-06-20 21:00:00 26.3 6 Oeste 18 Oeste 0 919.1 -0.4 26
2019-06-20 20:00:00 27.4 7 Noroeste 24 Sudoeste 0 919.2 -0.6 24
2019-06-20 19:00:00 28.8 10 Sudoeste 22 Oeste 0 919.1 -1.3 23
2019-06-20 18:00:00 26.7 6 Norte 22 Sudoeste 0 919.5 -1.3 26
2019-06-20 17:00:00 27.2 10 Oeste 24 Oeste 0 919.8 -1.5 26
2019-06-20 16:00:00 26.5 8 Nordeste 34 Noroeste 0 920.4 -1.2 27
2019-06-20 15:00:00 26.8 13 Sudoeste 36 Oeste 0 920.8 -0.8 27
2019-06-20 14:00:00 26.7 11 Sudoeste 30 Sudoeste 0 921.3 -0.3 25
2019-06-20 13:00:00 24.7 13 Oeste 39 Oeste 0 921.6 -0.2 32
2019-06-20 12:00:00 24.2 14 Sudoeste 28 Oeste 0 921.6 -0.3 34
2019-06-20 11:00:00 22.1 5 Oeste 15 Sudoeste 0 921.6 0 43
2019-06-20 10:00:00 19.8 8 Oeste 18 Sudoeste 0 921.8 0.3 49
2019-06-20 09:00:00 17.5 6 Sur 12 Sur 0 921.9 0.7 56
2019-06-20 08:00:00 16.3 6 Sudeste 11 Sudeste 0 921.6 0.3 57
2019-06-20 07:00:00 15.6 7 Sudeste 14 Sur 0 921.5 -0.1 58
2019-06-20 06:00:00 16.1 5 Sur 13 Sudeste 0 921.2 -0.6 57
2019-06-20 05:00:00 16.8 9 Sudoeste 15 Sudoeste 0 921.3 -0.9 55
2019-06-20 04:00:00 17.5 8 Sur 15 Sudoeste 0 921.6 -0.6 51
2019-06-20 03:00:00 18.3 8 Sudoeste 15 Sudoeste 0 921.8 -0.3 48
2019-06-20 02:00:00 19.2 4 Sudoeste 9 Sudoeste 0 922.2 0.1 45
2019-06-20 01:00:00 19.5 6 Sudoeste 12 Oeste 0 922.2 0.6 44
2019-06-20 00:00:00 20.2 7 Oeste 18 Noroeste 0 922.1 0.6 42
2019-06-19 23:00:00 21.4 9 Oeste 25 Oeste 0 922.1 1.1 39
2019-06-19 22:00:00 22.8 11 Noroeste 26 Noroeste 0 921.6 0.7 36
2019-06-19 21:00:00 24.5 13 Oeste 39 Oeste 0 921.5 0.4 33
2019-06-19 20:00:00 26.4 14 Noroeste 35 Oeste 0 921 -0.3 29
2019-06-19 19:00:00 27.9 13 Oeste 39 Noroeste 0 920.9 -0.9 26
2019-06-19 18:00:00 28.6 16 Oeste 41 Sudoeste 0 921.1 -1.3 24
2019-06-19 17:00:00 29.5 18 Sudoeste 42 Oeste 0 921.3 -1.6 21
2019-06-19 16:00:00 28.5 14 Oeste 37 Oeste 0 921.8 -1.4 24
2019-06-19 15:00:00 26.9 19 Sudoeste 36 Sudoeste 0 922.4 -0.9 28
2019-06-19 14:00:00 25.7 15 Sudoeste 39 Oeste 0 922.9 -0.4 31
2019-06-19 13:00:00 23.9 16 Sudoeste 33 Sudoeste 0 923.2 -0.2 35
2019-06-19 12:00:00 22.5 15 Sudoeste 29 Sudoeste 0 923.3 0.1 41
2019-06-19 11:00:00 20.8 10 Oeste 27 Sudoeste 0 923.3 0.4 48
2019-06-19 10:00:00 19.5 11 Oeste 27 Oeste 0 923.4 0.8 51
2019-06-19 09:00:00 17.9 12 Oeste 28 Oeste 0 923.2 1 54
2019-06-19 08:00:00 16.8 10 Oeste 22 Oeste 0 922.9 0.8 58
2019-06-19 07:00:00 16.4 10 Oeste 26 Oeste 0 922.6 0.6 66
2019-06-19 06:00:00 17 4 Oeste 14 Oeste 0 922.2 0 62
2019-06-19 05:00:00 17.9 8 Oeste 17 Oeste 0 922.1 -0.1 58
2019-06-19 04:00:00 17.6 7 Oeste 17 Oeste 0 922 -0.2 57
2019-06-19 03:00:00 18.7 7 Sudoeste 14 Sudoeste 0 922.2 0.1 46
2019-06-19 02:00:00 19.6 6 Sudoeste 13 Sudoeste 0 922.2 0.3 44
2019-06-19 01:00:00 20.7 5 Oeste 12 Oeste 0 922.2 1.1 41
2019-06-19 00:00:00 21.3 6 Noroeste 20 Oeste 0 922.1 1.4 37
2019-06-18 23:00:00 22.6 8 Oeste 27 Oeste 0 921.9 1.7 26
2019-06-18 22:00:00 24.5 12 Oeste 32 Sudoeste 0 921.1 1.1 18
2019-06-18 21:00:00 27.1 21 Oeste 45 Sudoeste 0 920.7 0.6 10
2019-06-18 20:00:00 28.6 26 Sudoeste 44 Sudoeste 0 920.2 -0.2 12
2019-06-18 19:00:00 30.2 23 Sudoeste 46 Sudoeste 0 920 -0.8 11
2019-06-18 18:00:00 31 25 Sudoeste 46 Sur 0 920.1 -1.1 12
2019-06-18 17:00:00 30.9 26 Sudoeste 47 Sudoeste 0 920.4 -1.3 12
2019-06-18 16:00:00 30.4 21 Sudoeste 49 Sudoeste 0 920.8 -1.4 13
2019-06-18 15:00:00 29.5 25 Sudoeste 49 Sudoeste 0 921.2 -1.3 14
2019-06-18 14:00:00 28.5 22 Sudoeste 47 Sudoeste 0 921.7 -0.7 16
2019-06-18 13:00:00 27.3 23 Sudoeste 43 Sudoeste 0 922.2 -0.5 18
2019-06-18 12:00:00 25.5 19 Sudoeste 36 Sudoeste 0 922.5 -0.1 20
2019-06-18 11:00:00 24.6 19 Sudoeste 34 Sudoeste 0 922.4 0.3 19
2019-06-18 10:00:00 22.3 8 Sur 19 Sudoeste 0 922.7 1 20
2019-06-18 09:00:00 19.9 9 Sur 21 Sudeste 0 922.6 1.3 27
2019-06-18 08:00:00 18.3 11 Sudeste 21 Sudeste 0 922.1 0.8 28
2019-06-18 07:00:00 18 12 Sudeste 21 Sudeste 0 921.7 0.2 32
2019-06-18 06:00:00 18.7 12 Sudeste 18 Sur 0 921.3 -0.3 28
2019-06-18 05:00:00 19.6 12 Sudeste 18 Sudeste 0 921.3 -0.6 24
2019-06-18 04:00:00 20.2 12 Sudeste 21 Sudeste 0 921.5 -0.5 24
2019-06-18 03:00:00 20.8 8 Sudoeste 12 Sudoeste 0 921.6 -0.3 22
2019-06-18 02:00:00 22.1 7 Sur 17 Sudoeste 0 921.9 0.6 23
2019-06-18 01:00:00 22.8 7 Sudeste 14 Sur 0 922 0.9 22
2019-06-18 00:00:00 24.5 9 Sur 18 Sudeste 0 921.9 0.8 19
2019-06-17 23:00:00 25.9 4 Sur 10 Sur 0 921.3 0 17
2019-06-17 22:00:00 26.8 5 Sur 14 Sur 0 921.1 -0.1 16
2019-06-17 21:00:00 28.1 6 Sur 27 Sudoeste 0 921.1 -0.5 14
2019-06-17 20:00:00 29 12 Sudoeste 37 Sudoeste 0 921.3 -0.8 12
2019-06-17 19:00:00 30.7 13 Sudoeste 33 Sudoeste 0 921.2 -1.5 11
2019-06-17 18:00:00 31.4 15 Sur 42 Sudoeste 0 921.6 -1.8 12
2019-06-17 17:00:00 31.9 14 Sur 32 Sur 0 922.1 -1.8 12
2019-06-17 16:00:00 30.7 16 Sudoeste 35 Oeste 0 922.7 -1.7 12
2019-06-17 15:00:00 29.5 17 Sudoeste 32 Sur 0 923.4 -1.2 14
2019-06-17 14:00:00 28.4 10 Sudoeste 31 Sur 0 923.9 -1.1 14
2019-06-17 13:00:00 27 4 Sudeste 19 Sudoeste 0 924.4 -0.6 15
2019-06-17 12:00:00 24.9 5 Sudoeste 17 Sur 0 924.6 -0.2 21
2019-06-17 11:00:00 22.5 5 Sudoeste 12 Sur 0 925 0.5 25
2019-06-17 10:00:00 19.9 7 Sur 16 Sudeste 0 925 0.9 33
2019-06-17 09:00:00 17.1 10 Sur 17 Sudeste 0 924.8 0.8 46
2019-06-17 08:00:00 15 11 Sudeste 19 Sudeste 0 924.5 0.6 57
2019-06-17 07:00:00 14.3 11 Sudeste 19 Sudeste 0 924.1 0.1 64
2019-06-17 06:00:00 15.1 11 Sudeste 21 Sudeste 0 924 -0.2 63
2019-06-17 05:00:00 16.3 15 Sudeste 24 Sudeste 0 923.9 -0.5 60
2019-06-17 04:00:00 17 11 Sudeste 19 Sudeste 0 924 -0.4 57
2019-06-17 03:00:00 17.5 11 Sudeste 25 Sur 0 924.2 -0.4 53
2019-06-17 02:00:00 18.3 11 Sudeste 23 Sudeste 0 924.4 0 46
2019-06-17 01:00:00 19.7 12 Sudeste 27 Sudeste 0 924.4 0.4 41
2019-06-17 00:00:00 20.8 13 Sudeste 23 Sudeste 0 924.6 1.2 31
2019-06-16 23:00:00 22.6 11 Sudeste 20 Sudeste 0 924.4 1.1 23
2019-06-16 22:00:00 24.8 8 Sur 22 Sur 0 924 0.6 21
2019-06-16 21:00:00 26.9 4 Noroeste 12 Sur 0 923.4 -0.2 13
2019-06-16 20:00:00 27.4 4 Sur 20 Sudoeste 0 923.3 -0.4 13
2019-06-16 19:00:00 27.4 9 Sur 24 Sudoeste 0 923.4 -0.8 12
2019-06-16 18:00:00 28.5 14 Sudeste 33 Sudoeste 0 923.6 -1.2 15
2019-06-16 17:00:00 28.6 12 Sudoeste 28 Sudoeste 0 923.7 -1.4 14
2019-06-16 16:00:00 29.2 9 Sudoeste 28 Sudoeste 0 924.2 -1.3 15
2019-06-16 15:00:00 28.4 10 Sur 29 Sur 0 924.8 -0.9 17
2019-06-16 14:00:00 28.1 11 Sur 31 Sudoeste 0 925.1 -0.7 18
2019-06-16 13:00:00 25.4 10 Sur 30 Sudeste 0 925.5 -0.3 24
2019-06-16 12:00:00 24.4 16 Sudeste 38 Sudeste 0 925.7 0 26
2019-06-16 11:00:00 22.3 20 Sudeste 30 Sudeste 0 925.8 0.5 29
2019-06-16 10:00:00 19.4 19 Sudeste 39 Sudeste 0 925.8 1 31
2019-06-16 09:00:00 17.4 17 Sudeste 33 Sudeste 0 925.7 1.1 34
2019-06-16 08:00:00 16.1 13 Sudeste 27 Sudeste 0 925.3 0.7 36
2019-06-16 07:00:00 15.4 9 Este 20 Sudeste 0 924.8 -0.3 32
2019-06-16 06:00:00 15.5 10 Este 19 Este 0 924.6 -0.7 26
2019-06-16 05:00:00 15.1 6 Sudeste 11 Sudeste 0 924.6 -1 28
2019-06-16 04:00:00 16 6 Sudeste 12 Sudeste 0 925.1 -0.7 25
2019-06-16 03:00:00 17.7 4 Este 7 Nordeste 0 925.3 -0.6 24
2019-06-16 02:00:00 17.1 2 Sudeste 5 Sudeste 0 925.6 -0.1 24
2019-06-16 01:00:00 19 3 Norte 4 Norte 0 925.8 0.6 19
2019-06-16 00:00:00 18.5 0 Calma -- -- 0 925.9 1.1 21
2019-06-15 23:00:00 19.8 0 Calma 7 Noroeste 0 925.7 1.1 19
2019-06-15 22:00:00 21 4 Noroeste 13 Noroeste 0 925.2 0.8 17
2019-06-15 21:00:00 23 5 Noroeste 19 Oeste 0 924.8 0.2 15
2019-06-15 20:00:00 24 7 Oeste 24 Noroeste 0 924.6 -0.3 15
2019-06-15 19:00:00 25 9 Noroeste 26 Oeste 0 924.4 -0.7 15
2019-06-15 18:00:00 26.2 9 Sudoeste 26 Noroeste 0 924.6 -0.8 14
2019-06-15 17:00:00 25.5 6 Sudoeste 25 Oeste 0 924.9 -0.9 15
2019-06-15 16:00:00 24.6 9 Sudoeste 32 Oeste 0 925.1 -0.9 18
2019-06-15 15:00:00 22.8 7 Oeste 25 Sudoeste 0 925.4 -0.6 22
2019-06-15 14:00:00 21.2 7 Oeste 22 Sudoeste 0 925.8 -0.2 24
2019-06-15 13:00:00 19.5 8 Oeste 23 Noroeste 0 926 0.1 29
2019-06-15 12:00:00 18.2 7 Oeste 25 Noroeste 0 926 0.5 32
2019-06-15 11:00:00 16.4 6 Oeste 18 Oeste 0 926 1 40
2019-06-15 10:00:00 14.6 6 Noroeste 16 Noroeste 0 925.9 1.2 47
2019-06-15 09:00:00 12.9 5 Noroeste 21 Oeste 0 925.5 1.3 54
2019-06-15 08:00:00 11 10 Oeste 19 Oeste 0 925 0.9 63
2019-06-15 07:00:00 10.2 9 Sudoeste 23 Oeste 0 924.7 0.8 65
2019-06-15 06:00:00 11.3 14 Oeste 28 Oeste 0 924.2 0.2 61
2019-06-15 05:00:00 12.1 13 Oeste 30 Oeste 0 924.1 0.1 55
2019-06-15 04:00:00 12.7 16 Oeste 31 Oeste 0 923.9 0.2 49
2019-06-15 03:00:00 13.7 15 Oeste 34 Oeste 0 924 0.8 44
2019-06-15 02:00:00 14.5 12 Oeste 34 Oeste 0 924 1.5 39
2019-06-15 01:00:00 15.4 14 Oeste 27 Oeste 0 923.7 1.9 38
2019-06-15 00:00:00 15.9 13 Sudoeste 24 Oeste 0 923.2 2.1 33
2019-06-14 23:00:00 17.1 15 Oeste 35 Oeste 0 922.5 2.4 26
2019-06-14 22:00:00 18.7 20 Oeste 42 Oeste 0 921.8 2.2 27
2019-06-14 21:00:00 21.3 18 Oeste 41 Oeste 0 921.1 1.5 21
2019-06-14 20:00:00 22.9 21 Oeste 48 Oeste 0 920.1 0.6 18
2019-06-14 19:00:00 24.5 25 Sudoeste 45 Sudoeste 0 919.6 0.1 15
2019-06-14 18:00:00 25.6 22 Sudoeste 47 Sudoeste 0 919.6 -0.1 14
2019-06-14 17:00:00 26.3 24 Oeste 53 Sudoeste 0 919.5 -0.1 15
2019-06-14 16:00:00 25.8 22 Sudoeste 46 Oeste 0 919.5 0 15
2019-06-14 15:00:00 25.2 23 Sudoeste 49 Oeste 0 919.7 -0.1 15
2019-06-14 14:00:00 24.4 23 Sudoeste 48 Sudoeste 0 919.6 -0.1 19
2019-06-14 13:00:00 23.3 18 Sudoeste 40 Sudoeste 0 919.5 -0.2 26
2019-06-14 12:00:00 21.6 18 Sudoeste 47 Oeste 0 919.8 0.4 29
2019-06-14 11:00:00 19.9 13 Oeste 28 Sudoeste 0 919.7 0.7 32
2019-06-14 10:00:00 17.7 12 Oeste 29 Oeste 0 919.7 1.6 36
2019-06-14 09:00:00 15.5 9 Oeste 23 Noroeste 0 919.4 1.8 44
2019-06-14 08:00:00 14.6 5 Sudoeste 13 Sur 0 919 1.4 72
2019-06-14 07:00:00 14.7 6 Sur 16 Sudeste 0 918.1 0.6 71
2019-06-14 06:00:00 15.2 7 Sur 19 Sudeste 0 917.6 -0.3 69
2019-06-14 05:00:00 15.8 10 Sudeste 22 Sudeste 0 917.6 -0.7 67
2019-06-14 04:00:00 16.5 14 Sudeste 25 Sudeste 0 917.5 -0.9 65
2019-06-14 03:00:00 17.2 10 Sudeste 21 Sudeste 0 917.9 -0.5 62
2019-06-14 02:00:00 18.1 10 Sudeste 23 Sudeste 0 918.3 0.6 58
2019-06-14 01:00:00 19.2 10 Sudeste 19 Sudeste 0 918.4 2.2 53
2019-06-14 00:00:00 20 9 Sudeste 27 Sudeste 0 918.4 2.6 51
2019-06-13 23:00:00 21.4 10 Sur 37 Sudeste 0 917.7 2.1 47
2019-06-13 22:00:00 23.4 10 Sudeste 23 Sudeste 0 916.2 0.4 35
2019-06-13 21:00:00 24.7 12 Sur 27 Sur 0 915.8 -0.2 32
2019-06-13 20:00:00 26 15 Sudoeste 53 Sudeste 0 915.6 -0.7 25
2019-06-13 19:00:00 26.6 14 Sur 36 Sur 0 915.8 -1.2 27
2019-06-13 18:00:00 28 15 Sudeste 36 Sudeste 0 916 -1.1 25
2019-06-13 17:00:00 27.9 15 Sudeste 30 Sur 0 916.3 -1.4 25
2019-06-13 16:00:00 27.9 13 Sur 35 Sudeste 0 917 -1.1 26
2019-06-13 15:00:00 25.4 15 Sudeste 39 Sudeste 0 917.1 -1.4 31
2019-06-13 14:00:00 24.8 16 Sudeste 37 Sur 0 917.7 -0.7 32
2019-06-13 13:00:00 23.4 17 Sudeste 39 Sudeste 0 918.1 -0.5 38
2019-06-13 12:00:00 21.5 17 Sudeste 39 Sudeste 0 918.5 0.4 44
2019-06-13 11:00:00 19.9 17 Sur 41 Sudeste 0 918.4 0.7 49
2019-06-13 10:00:00 18 18 Sudeste 43 Sudeste 0 918.6 0.9 57
2019-06-13 09:00:00 15.3 21 Sudeste 46 Sudeste 0 918.1 0.8 67
2019-06-13 08:00:00 13.6 20 Sudeste 36 Sudeste 0 917.7 0.4 73
2019-06-13 07:00:00 12.9 16 Sudeste 35 Sudeste 0 917.7 0.4 76
2019-06-13 06:00:00 13 21 Sudeste 38 Sudeste 0 917.3 -0.2 77
2019-06-13 05:00:00 13.2 22 Sudeste 41 Sudeste 0 917.3 -0.5 77
2019-06-13 04:00:00 13.2 25 Sudeste 45 Sudeste 0 917.3 -0.8 76
2019-06-13 03:00:00 13.6 23 Sudeste 46 Sudeste 0 917.5 -0.5 67
2019-06-13 02:00:00 14.6 23 Sudeste 40 Sudeste 0 917.8 0.4 56
2019-06-13 01:00:00 15.6 19 Sudeste 36 Sudeste 0 918.1 1.3 53
2019-06-13 00:00:00 17.6 18 Sudeste 40 Sudeste 0 918 1.2 47
2019-06-12 23:00:00 19.3 5 Sur 13 Sudeste 0 917.4 0.5 18
2019-06-12 22:00:00 21.2 8 Sudeste 17 Sur 0 916.8 -0.4 15
2019-06-12 21:00:00 22.9 8 Sudeste 26 Sudoeste 0 916.8 -1 14
2019-06-12 20:00:00 24 11 Sur 28 Sudoeste 0 916.9 -1.2 14
2019-06-12 19:00:00 25 12 Sudoeste 27 Oeste 0 917.2 -1.4 13
2019-06-12 18:00:00 25.1 17 Sudoeste 36 Sudoeste 0 917.8 -1.4 13
2019-06-12 17:00:00 26.3 10 Sudeste 32 Sudoeste 0 918.1 -1.8 12
2019-06-12 16:00:00 25.2 9 Sudeste 32 Sudoeste 0 918.6 -1.9 14
2019-06-12 15:00:00 23.8 10 Sur 28 Este 0 919.2 -1.5 15
2019-06-12 14:00:00 22.5 8 Sudeste 26 Sudeste 0 919.9 -1 15
2019-06-12 13:00:00 20.6 9 Sur 25 Nordeste 0 920.5 -0.5 19
2019-06-12 12:00:00 19.3 10 Sudeste 24 Sudeste 0 920.7 -0.1 22
2019-06-12 11:00:00 17.9 12 Sudeste 27 Sudeste 0 920.9 0.5 26
2019-06-12 10:00:00 14.7 15 Sudeste 35 Sur 0 921 0.8 42
2019-06-12 09:00:00 12.5 14 Sudeste 28 Sudeste 0 920.8 0.8 51
2019-06-12 08:00:00 10.1 11 Sudeste 23 Sudeste 0 920.4 0.5 53
2019-06-12 07:00:00 9.3 12 Sudeste 22 Sudeste 0 920.2 0 54
2019-06-12 06:00:00 8.9 9 Sudeste 18 Sudeste 0 920 -0.5 54
2019-06-12 05:00:00 9.7 9 Sudeste 17 Sur 0 919.9 -0.9 51
2019-06-12 04:00:00 10.6 9 Sudeste 18 Sudeste 0 920.2 -0.8 51
2019-06-12 03:00:00 11.4 9 Sudeste 19 Sudeste 0 920.5 -0.5 42
2019-06-12 02:00:00 12.3 11 Sudeste 18 Sudeste 0 920.8 -0.4 36
2019-06-12 01:00:00 13.4 6 Nordeste 18 Norte 0 921 0.6 29
2019-06-12 00:00:00 13.6 9 Nordeste 19 Norte 0 921 1.1 26
2019-06-11 23:00:00 14.1 10 Norte 15 Norte 0 921.2 1.7 26
2019-06-11 22:00:00 15.8 8 Norte 23 Norte 0 920.4 1.1 20
2019-06-11 21:00:00 18.1 10 Noroeste 27 Norte 0 919.9 0.5 16
2019-06-11 20:00:00 19.1 15 Norte 35 Norte 0 919.5 0.1 17
2019-06-11 19:00:00 19.4 10 Norte 38 Norte 0 919.3 -0.2 20
2019-06-11 18:00:00 19.3 16 Norte 35 Norte 0 919.4 -0.2 23
2019-06-11 17:00:00 19 16 Noroeste 38 Noroeste 0 919.4 0.1 27
2019-06-11 16:00:00 18.5 17 Norte 46 Norte 0 919.5 0.6 30
2019-06-11 15:00:00 17.9 23 Norte 47 Norte 0 919.6 1.2 33
2019-06-11 14:00:00 17.3 26 Norte 46 Norte 0 919.3 1.1 37
2019-06-11 13:00:00 17.1 24 Norte 49 Norte 0 918.9 1 38
2019-06-11 12:00:00 17.1 19 Norte 42 Norte 0 918.4 0.9 39
2019-06-11 11:00:00 16.9 17 Norte 35 Norte 0 918.2 0.7 40
2019-06-11 10:00:00 15.1 13 Norte 28 Norte 0 917.9 0.5 42
2019-06-11 09:00:00 15.1 9 Noroeste 20 Noroeste 0 917.5 0 38
2019-06-11 08:00:00 14.4 7 Noroeste 15 Noroeste 0 917.5 -0.1 35
2019-06-11 07:00:00 13.4 4 Norte 10 Noroeste 0 917.4 -0.5 37
2019-06-11 06:00:00 13.1 4 Noroeste 14 Oeste 0 917.5 -1.1 34
2019-06-11 05:00:00 13.6 7 Oeste 14 Oeste 0 917.6 -1.4 37
2019-06-11 04:00:00 14.3 2 Noroeste 5 Noroeste 0 917.9 -1.4 36
2019-06-11 03:00:00 15.1 3 Oeste 9 Noroeste 0 918.6 -1 32
2019-06-11 02:00:00 16.3 4 Noroeste 10 Noroeste 0 919 -0.5 27
2019-06-11 01:00:00 17.6 4 Norte 12 Noroeste 0 919.3 0.1 22
2019-06-11 00:00:00 19.3 8 Noroeste 20 Oeste 0 919.6 0.4 21
2019-06-10 23:00:00 19.6 12 Oeste 18 Oeste 0 919.5 0.1 26
2019-06-10 22:00:00 21.2 10 Oeste 21 Oeste 0 919.2 -0.5 20
2019-06-10 21:00:00 23.5 8 Oeste 27 Oeste 0 919.2 -1 20
2019-06-10 20:00:00 24.5 13 Oeste 35 Oeste 0 919.4 -1.2 16
2019-06-10 19:00:00 25.6 10 Oeste 42 Oeste 0 919.7 -1.5 13
2019-06-10 18:00:00 26.6 15 Oeste 32 Oeste 0 920.2 -1.3 16
2019-06-10 17:00:00 26.3 18 Oeste 35 Sudoeste 0 920.6 -1.6 15
2019-06-10 16:00:00 25.4 17 Oeste 37 Sudoeste 0 921.2 -1.4 18
2019-06-10 15:00:00 24.3 9 Oeste 31 Oeste 0 921.5 -1.4 20
2019-06-10 14:00:00 22.9 6 Oeste 28 Oeste 0 922.2 -0.8 24
2019-06-10 13:00:00 22.3 8 Noroeste 24 Oeste 0 922.6 -0.4 26
2019-06-10 12:00:00 20.7 8 Noroeste 25 Norte 0 922.9 0.2 29
2019-06-10 11:00:00 18.8 8 Norte 18 Noroeste 0 923 0.5 38
2019-06-10 10:00:00 16.8 5 Noroeste 16 Noroeste 0 923 0.4 48
2019-06-10 09:00:00 14.9 7 Noroeste 12 Noroeste 0 922.7 0.6 49
2019-06-10 08:00:00 13.9 4 Norte 8 Norte 0 922.5 0.1 47
2019-06-10 07:00:00 13.4 3 Noroeste 7 Noroeste 0 922.6 -0.3 46
2019-06-10 06:00:00 14.2 2 Noroeste 6 Noroeste 0 922.1 -0.8 42
2019-06-10 05:00:00 14.7 3 Norte 10 Noroeste 0 922.4 -0.5 40
2019-06-10 04:00:00 15.1 5 Noroeste 17 Noroeste 0 922.9 0.3 38
2019-06-10 03:00:00 16 8 Noroeste 22 Noroeste 0 922.9 0.3 35
2019-06-10 02:00:00 17 8 Noroeste 25 Oeste 0 922.9 0.4 31
2019-06-10 01:00:00 18.4 14 Oeste 30 Sudoeste 0 922.6 0.7 27
2019-06-10 00:00:00 19.2 14 Oeste 31 Oeste 0 922.6 1.1 25
2019-06-09 23:00:00 20.2 13 Oeste 27 Oeste 0 922.5 1.4 20
2019-06-09 22:00:00 21.4 11 Oeste 28 Oeste 0 921.9 1 16
2019-06-09 21:00:00 23.6 13 Oeste 32 Sudoeste 0 921.5 0.4 14
2019-06-09 20:00:00 25.1 18 Oeste 41 Sudoeste 0 921.1 -0.1 13
2019-06-09 19:00:00 26.7 18 Oeste 41 Sudoeste 0 920.9 -0.9 12
2019-06-09 18:00:00 27.8 19 Sudoeste 39 Oeste 0 921.1 -1.3 14
2019-06-09 17:00:00 27.2 14 Sudoeste 37 Oeste 0 921.2 -1.9 14
2019-06-09 16:00:00 27.7 10 Sudoeste 38 Oeste 0 921.8 -1.7 15
2019-06-09 15:00:00 26.6 12 Sudoeste 43 Oeste 0 922.4 -1.4 16
2019-06-09 14:00:00 24.8 14 Oeste 39 Oeste 0 923.1 -0.8 18
2019-06-09 13:00:00 24.1 10 Sudoeste 32 Sudoeste 0 923.5 -0.5 20
2019-06-09 12:00:00 22.2 10 Oeste 31 Oeste 0 923.8 0.1 25
2019-06-09 11:00:00 20.7 12 Oeste 26 Oeste 0 923.9 0.4 31
2019-06-09 10:00:00 17.8 5 Sudoeste 16 Sudeste 0 924 0.4 45
2019-06-09 09:00:00 16.1 9 Sudeste 17 Sudeste 0 923.7 0.3 56
2019-06-09 08:00:00 14.1 9 Sudeste 18 Sudeste 0 923.5 0 62
2019-06-09 07:00:00 13.5 11 Sudeste 21 Sudeste 0 923.6 0 62
2019-06-09 06:00:00 14.4 8 Sudeste 25 Sudeste 0 923.4 -0.6 58
2019-06-09 05:00:00 15.5 12 Sudeste 30 Sudeste 0 923.5 -0.8 54
2019-06-09 04:00:00 15.5 13 Sudeste 27 Sudeste 0 923.6 -0.9 52
2019-06-09 03:00:00 15.8 14 Sudeste 31 Sur 0 924 -0.4 52
2019-06-09 02:00:00 16.2 15 Sudeste 36 Sudeste 0 924.3 -0.1 50
2019-06-09 01:00:00 16.8 17 Sudeste 36 Sudeste 0 924.5 0.9 48
2019-06-09 00:00:00 17.4 18 Sudeste 40 Sudeste 0 924.4 1.2 48
2019-06-08 23:00:00 18.6 22 Sudeste 44 Sudeste 0 924.4 1.2 46
2019-06-08 22:00:00 20.1 26 Sudeste 54 Sudeste 0 923.6 0.5 44
2019-06-08 21:00:00 22.5 21 Sudeste 55 Sudeste 0 923.2 -0.1 38
2019-06-08 20:00:00 24.7 23 Sudeste 51 Sudeste 0 923.2 -0.6 32
2019-06-08 19:00:00 26.4 23 Sudeste 48 Sudeste 0 923.1 -1.2 29
2019-06-08 18:00:00 28.2 22 Sudeste 52 Este 0 923.3 -1.6 26
2019-06-08 17:00:00 28.6 19 Sudeste 45 Sudeste 0 923.8 -1.7 24
2019-06-08 16:00:00 27.7 18 Sudeste 44 Sudeste 0 924.3 -1.4 26
2019-06-08 15:00:00 26.5 17 Sudeste 40 Sudeste 0 924.9 -1 27
2019-06-08 14:00:00 25.6 21 Sudeste 48 Sudeste 0 925.5 -0.5 29
2019-06-08 13:00:00 23.7 22 Sudeste 54 Sudeste 0 925.7 -0.4 33
2019-06-08 12:00:00 21.9 27 Sudeste 55 Sudeste 0 925.9 -0.2 38
2019-06-08 11:00:00 20.6 25 Sudeste 49 Sudeste 0 926 0 40
2019-06-08 10:00:00 18.6 25 Sudeste 50 Sudeste 0 926.1 0.2 38
2019-06-08 09:00:00 16.4 21 Sudeste 40 Este 0 926.1 0.1 39
2019-06-08 08:00:00 14.3 10 Este 23 Este 0 926 0 39
2019-06-08 07:00:00 13.2 12 Este 19 Este 0 925.9 -0.1 34
2019-06-08 06:00:00 13.6 10 Este 19 Este 0 926 -0.2 30
2019-06-08 05:00:00 13.7 6 Nordeste 18 Este 0 926 -0.1 29
2019-06-08 04:00:00 13.8 7 Nordeste 18 Nordeste 0 926 0 29
2019-06-08 03:00:00 15 5 Este 15 Norte 0 926.2 -0.1 25
2019-06-08 02:00:00 16.1 4 Este 11 Este 0 926.1 0.3 23
2019-06-08 01:00:00 16.4 5 Nordeste 12 Nordeste 0 926 0.8 22
2019-06-08 00:00:00 17.1 5 Nordeste 10 Nordeste 0 926.3 1.4 23
2019-06-07 23:00:00 17.6 4 Norte 6 Norte 0 925.8 1.1 21
2019-06-07 22:00:00 17.9 3 Noroeste 12 Noroeste 0 925.2 1 21
2019-06-07 21:00:00 19.9 7 Noroeste 18 Noroeste 0 924.9 0.8 18
2019-06-07 20:00:00 20.8 4 Noroeste 23 Noroeste 0 924.7 0.7 16
2019-06-07 19:00:00 22.6 9 Oeste 26 Noroeste 0 924.2 0.3 15
2019-06-07 18:00:00 22 8 Oeste 27 Oeste 0 924.1 0.4 17
2019-06-07 17:00:00 20.9 7 Noroeste 32 Oeste 0 924 0.3 18
2019-06-07 16:00:00 21.2 10 Oeste 38 Noroeste 0 923.9 0.6 19
2019-06-07 15:00:00 20.1 15 Oeste 35 Oeste 0 923.7 0.8 21
2019-06-07 14:00:00 17.7 9 Noroeste 44 Noroeste 0 923.7 1.1 26
2019-06-07 13:00:00 17 13 Oeste 40 Oeste 0 923.3 1.3 29
2019-06-07 12:00:00 15.5 14 Oeste 34 Noroeste 0 922.9 1.8 36
2019-06-07 11:00:00 13.9 11 Noroeste 29 Oeste 0 922.6 2.4 42
2019-06-07 10:00:00 12.2 14 Oeste 35 Oeste 0 922 2.6 55
2019-06-07 09:00:00 10.8 19 Noroeste 41 Oeste 0 921.1 2.5 66
2019-06-07 08:00:00 10.6 17 Oeste 44 Oeste 0 920.2 2.5 74
2019-06-07 07:00:00 11.2 20 Oeste 47 Oeste 0 919.4 2 68
2019-06-07 06:00:00 12.7 15 Oeste 40 Sudoeste 0 918.6 1.6 74
2019-06-07 05:00:00 14 14 Sudoeste 30 Sudoeste 0 917.7 0.7 60
2019-06-07 04:00:00 14 14 Sudoeste 31 Sudoeste 0 917.4 0.3 53
2019-06-07 03:00:00 14.9 20 Sudoeste 33 Sudoeste 0 917 0.1 46
2019-06-07 02:00:00 15 15 Sudoeste 27 Sudoeste 0 917 0.7 36
2019-06-07 01:00:00 16.2 12 Sudoeste 25 Sudoeste 0 917.1 1.4 28
2019-06-07 00:00:00 16.9 16 Sudoeste 24 Sudoeste 0 916.9 1.3 26
2019-06-06 23:00:00 18.1 12 Sudoeste 23 Sudoeste 0 916.3 0.9 26
2019-06-06 22:00:00 20.2 15 Sudoeste 36 Sudoeste 0 915.7 -0.1 22
2019-06-06 21:00:00 21.9 21 Sudoeste 45 Sudoeste 0 915.6 -0.9 20
2019-06-06 20:00:00 23.5 28 Sudoeste 49 Sudoeste 0 915.4 -1.8 18
2019-06-06 19:00:00 24.4 23 Sudoeste 49 Sudoeste 0 915.8 -2.4 17
2019-06-06 18:00:00 24.2 26 Sudoeste 53 Sur 0 916.5 -2.2 17
2019-06-06 17:00:00 24.2 25 Sudoeste 55 Sudoeste 0 917.2 -2 17
2019-06-06 16:00:00 23.7 27 Sudoeste 53 Sur 0 918.2 -1.7 16
2019-06-06 15:00:00 22.5 22 Sur 53 Sudoeste 0 918.7 -1.5 18
2019-06-06 14:00:00 20.9 20 Sudoeste 40 Sudoeste 0 919.2 -1.2 23
2019-06-06 13:00:00 19.7 14 Sudoeste 42 Sudoeste 0 919.9 -0.6 26
2019-06-06 12:00:00 18.4 15 Sur 33 Sur 0 920.2 -0.4 29
2019-06-06 11:00:00 16.6 13 Sudoeste 25 Sudoeste 0 920.4 -0.1 32
2019-06-06 10:00:00 14.9 9 Sur 18 Sur 0 920.5 0 39
2019-06-06 09:00:00 12.1 4 Sur 12 Sur 0 920.6 0.2 46
2019-06-06 08:00:00 10.7 5 Sur 10 Sur 0 920.5 0.1 49
2019-06-06 07:00:00 10.2 4 Sudeste 18 Sudoeste 0 920.5 0.1 48
2019-06-06 06:00:00 9.8 9 Sudoeste 14 Sudoeste 0 920.4 0 47
2019-06-06 05:00:00 10.7 9 Sudoeste 15 Sudoeste 0 920.4 -0.2 42
2019-06-06 04:00:00 11.3 8 Sudoeste 14 Sudoeste 0 920.4 -0.2 40
2019-06-06 03:00:00 12 8 Sudoeste 14 Sudoeste 0 920.4 -0.2 38
2019-06-06 02:00:00 13.4 8 Sudoeste 23 Oeste 0 920.6 0.3 34
2019-06-06 01:00:00 14.9 12 Oeste 25 Oeste 0 920.6 0.9 31
2019-06-06 00:00:00 15.4 10 Oeste 25 Oeste 0 920.6 1.2 30
2019-06-05 23:00:00 15.9 11 Oeste 22 Oeste 0 920.3 1.1 29
2019-06-05 22:00:00 17.4 8 Oeste 22 Oeste 0 919.7 0.6 25
2019-06-05 21:00:00 19.1 9 Oeste 28 Oeste 0 919.4 0.4 21
2019-06-05 20:00:00 20 10 Oeste 36 Oeste 0 919.2 -0.1 20
2019-06-05 19:00:00 21.1 13 Noroeste 35 Oeste 0 919.1 -0.1 18
2019-06-05 18:00:00 22.1 13 Oeste 47 Noroeste 0 919 -0.1 18
2019-06-05 17:00:00 22.4 17 Oeste 43 Oeste 0 919.3 0 18
2019-06-05 16:00:00 21.3 15 Noroeste 50 Noroeste 0 919.2 -0.1 20
2019-06-05 15:00:00 19.7 18 Noroeste 47 Noroeste 0 919.1 0 23
2019-06-05 14:00:00 18.9 21 Oeste 49 Noroeste 0 919.3 0.8 25
2019-06-05 13:00:00 18 19 Oeste 55 Noroeste 0 919.3 1.3 26
2019-06-05 12:00:00 16.6 20 Oeste 48 Sudoeste 0 919.1 1.7 32
2019-06-05 11:00:00 15.3 23 Noroeste 49 Oeste 0 918.5 1.6 39
2019-06-05 10:00:00 13.4 22 Oeste 46 Oeste 0 918 1.8 51
2019-06-05 09:00:00 12.6 24 Oeste 49 Oeste 0 917.4 1.6 55
2019-06-05 08:00:00 11.5 21 Oeste 46 Oeste 0 916.9 1.3 58
2019-06-05 07:00:00 12.6 26 Oeste 50 Oeste 0 916.2 0.3 54
2019-06-05 06:00:00 14.2 22 Oeste 40 Oeste 0 915.8 -0.2 55
2019-06-05 05:00:00 15.3 18 Oeste 36 Oeste 0 915.6 -0.8 57
2019-06-05 04:00:00 16.3 17 Oeste 35 Oeste 0 915.9 -0.4 55
2019-06-05 03:00:00 17.3 16 Oeste 35 Oeste 0 916 -0.4 54
2019-06-05 02:00:00 18.5 18 Oeste 36 Oeste 0 916.4 0.2 52
2019-06-05 01:00:00 19.9 11 Oeste 27 Oeste 0 916.3 0.5 40
2019-06-05 00:00:00 20.4 8 Oeste 21 Oeste 0 916.4 0.7 40
2019-06-04 23:00:00 21 9 Oeste 25 Oeste 0 916.2 0.3 38
2019-06-04 22:00:00 22.4 11 Oeste 35 Oeste 0 915.8 -0.2 33
2019-06-04 21:00:00 24.8 18 Oeste 50 Oeste 0 915.7 -0.6 26
2019-06-04 20:00:00 27 24 Sudoeste 42 Sudoeste 0 915.9 -0.9 21
2019-06-04 19:00:00 28 27 Sudoeste 52 Sudoeste 0 916 -1.3 20
2019-06-04 18:00:00 29.4 24 Sudoeste 49 Sudoeste 0 916.3 -1.5 19
2019-06-04 17:00:00 30 24 Sudoeste 58 Oeste 0 916.8 -1.8 17
2019-06-04 16:00:00 29.9 27 Sudoeste 50 Oeste 0 917.3 -1.8 18
2019-06-04 15:00:00 29.4 27 Sudoeste 50 Sudoeste 0 917.8 -1.8 18
2019-06-04 14:00:00 28.3 28 Sudoeste 52 Sudoeste 0 918.6 -1.3 18
2019-06-04 13:00:00 27.8 23 Sudoeste 45 Oeste 0 919.1 -1 21
2019-06-04 12:00:00 26.1 19 Sudoeste 33 Sudoeste 0 919.6 -0.6 24
2019-06-04 11:00:00 24.2 13 Sur 26 Sur 0 919.9 -0.2 28
2019-06-04 10:00:00 22.3 10 Sur 22 Sudeste 0 920.1 0.1 31
2019-06-04 09:00:00 19.9 7 Sudeste 18 Sudeste 0 920.2 0.4 37
2019-06-04 08:00:00 18.3 6 Sudeste 14 Sudeste 0 920.1 0.2 44
2019-06-04 07:00:00 18.2 8 Sudoeste 12 Sur 0 920 -0.2 47
2019-06-04 06:00:00 18.8 6 Sur 14 Sur 0 919.8 -0.8 41
2019-06-04 05:00:00 18.9 8 Sudeste 14 Sur 0 919.9 -1 30
2019-06-04 04:00:00 20.8 7 Sur 14 Sur 0 920.2 -0.9 25
2019-06-04 03:00:00 20.9 7 Sur 22 Sudeste 0 920.6 -0.5 20
2019-06-04 02:00:00 21.6 8 Sudoeste 19 Oeste 0 920.9 -0.3 19
2019-06-04 01:00:00 23 8 Sudoeste 13 Sudoeste 0 921.1 0.2 17
2019-06-04 00:00:00 24.2 8 Oeste 17 Oeste 0 921.1 0.1 15
2019-06-03 23:00:00 25.6 10 Oeste 23 Oeste 0 921.2 0.3 13
2019-06-03 22:00:00 27.2 12 Oeste 26 Oeste 0 920.9 -0.3 13
2019-06-03 21:00:00 29.5 12 Oeste 34 Oeste 0 921 -0.6 12
2019-06-03 20:00:00 31.3 13 Oeste 35 Sudoeste 0 920.9 -1.1 11
2019-06-03 19:00:00 32.4 25 Oeste 41 Oeste 0 921.2 -1.3 10
2019-06-03 18:00:00 33.5 12 Sudoeste 42 Sudoeste 0 921.6 -1.6 10
2019-06-03 17:00:00 33.9 24 Sudoeste 48 Sudoeste 0 922 -1.8 9
2019-06-03 16:00:00 33.5 23 Oeste 45 Oeste 0 922.5 -1.7 11
2019-06-03 15:00:00 32.7 13 Sur 32 Oeste 0 923.2 -1.3 11
2019-06-03 14:00:00 31.1 14 Oeste 29 Oeste 0 923.8 -0.7 13
2019-06-03 13:00:00 29.4 10 Oeste 28 Oeste 0 924.2 -0.2 14
2019-06-03 12:00:00 27.6 11 Sudoeste 24 Sudoeste 0 924.5 0.2 18
2019-06-03 11:00:00 24.8 8 Sur 22 Sudeste 0 924.5 0.4 24
2019-06-03 10:00:00 21.4 13 Sudeste 24 Sudeste 0 924.4 0.7 29
2019-06-03 09:00:00 19.2 12 Sudeste 21 Sudeste 0 924.3 0.9 33
2019-06-03 08:00:00 17.9 11 Sudeste 22 Sudeste 0 924.1 0.5 35
2019-06-03 07:00:00 17.9 12 Sudeste 23 Sudeste 0 923.7 0.3 34
2019-06-03 06:00:00 18.1 15 Sudeste 26 Sudeste 0 923.4 -0.3 34
2019-06-03 05:00:00 18.9 12 Sudeste 23 Sudeste 0 923.6 -0.4 33
2019-06-03 04:00:00 19.9 14 Sudeste 33 Sudeste 0 923.4 -0.9 32
2019-06-03 03:00:00 21 18 Sudeste 30 Sudeste 0 923.7 -0.4 30
2019-06-03 02:00:00 22 15 Sudeste 27 Sudeste 0 924 0.1 29
2019-06-03 01:00:00 23.9 12 Sudeste 25 Sudeste 0 924.3 1 21
2019-06-03 00:00:00 25.1 7 Sudoeste 15 Sudoeste 0 924.1 1.1 19
2019-06-02 23:00:00 26.6 8 Sudoeste 12 Sudoeste 0 923.9 0.9 17
2019-06-02 22:00:00 27.9 7 Sudoeste 11 Sudoeste 0 923.3 0.3 15
2019-06-02 21:00:00 30.1 2 Oeste 19 Oeste 0 923 -0.4 13
2019-06-02 20:00:00 31.9 7 Oeste 23 Noroeste 0 923 -0.7 12
2019-06-02 19:00:00 33.6 5 Sudoeste 27 Sudoeste 0 923 -1.2 11
2019-06-02 18:00:00 34.1 4 Norte 26 Sudoeste 0 923.4 -1.3 10
2019-06-02 17:00:00 33.9 9 Sur 24 Sudeste 0 923.7 -1.9 10
2019-06-02 16:00:00 33.9 6 Sudeste 26 Oeste 0 924.2 -1.9 11
2019-06-02 15:00:00 32.2 4 Sur 24 Sudoeste 0 924.7 -1.6 13
2019-06-02 14:00:00 30.6 5 Sur 24 Sudoeste 0 925.6 -0.7 14
2019-06-02 13:00:00 28.9 10 Sudoeste 21 Sudoeste 0 926.1 -0.2 17
2019-06-02 12:00:00 26.6 9 Sur 21 Sur 0 926.3 0.3 19
2019-06-02 11:00:00 24.2 12 Sur 22 Sudeste 0 926.3 0.4 24
2019-06-02 10:00:00 21 13 Sudeste 27 Este 0 926.3 0.7 29
2019-06-02 09:00:00 18.5 17 Sudeste 29 Sudeste 0 926 0.4 32
2019-06-02 08:00:00 16.5 15 Sudeste 29 Sudeste 0 925.9 0.3 36
2019-06-02 07:00:00 15.6 17 Sudeste 32 Sudeste 0 925.6 -0.2 38
2019-06-02 06:00:00 15.7 16 Sudeste 31 Sur 0 925.6 -0.5 38
2019-06-02 05:00:00 16.5 16 Sudeste 32 Sudeste 0 925.6 -0.6 36
2019-06-02 04:00:00 16.9 15 Sudeste 41 Sudeste 0 925.8 -0.3 36
2019-06-02 03:00:00 17.9 22 Sudeste 42 Sudeste 0 926.1 0.1 34
2019-06-02 02:00:00 18.8 20 Sudeste 38 Sudeste 0 926.2 0.6 34
2019-06-02 01:00:00 20.6 17 Sudeste 30 Sudeste 0 926.1 1 31
2019-06-02 00:00:00 22.3 12 Sudeste 23 Sur 0 926 1.1 25
2019-06-01 23:00:00 24 12 Sudeste 24 Sudeste 0 925.6 0.9 22
2019-06-01 22:00:00 26.1 6 Sur 16 Sudoeste 0 925.1 0.2 19
2019-06-01 21:00:00 29.2 3 Noroeste 15 Noroeste 0 924.9 -0.5 13
2019-06-01 20:00:00 30.6 5 Noroeste 26 Norte 0 924.7 -1.1 12
2019-06-01 19:00:00 31.4 7 Norte 18 Nordeste 0 924.9 -1.4 12
2019-06-01 18:00:00 32.3 4 Noroeste 21 Noroeste 0 925.4 -1.5 12
2019-06-01 17:00:00 33 5 Oeste 15 Sudoeste 0 925.8 -1.8 12
2019-06-01 16:00:00 31.3 6 Este 20 Sudeste 0 926.3 -1.9 14
2019-06-01 15:00:00 30.4 6 Sudoeste 19 Sudoeste 0 926.9 -1.5 16
2019-06-01 14:00:00 28.9 6 Nordeste 23 Sudeste 0 927.6 -1 18
2019-06-01 13:00:00 27.4 7 Sur 24 Sudeste 0 928.2 -0.3 22
2019-06-01 12:00:00 25.5 10 Sur 29 Sudeste 0 928.4 0 26
2019-06-01 11:00:00 23.2 13 Sudeste 28 Sudeste 0 928.6 0.4 32
2019-06-01 10:00:00 19.9 17 Sudeste 34 Sudeste 0 928.5 0.5 41
2019-06-01 09:00:00 17.6 16 Sudeste 37 Sudeste 0 928.4 0.6 44
2019-06-01 08:00:00 15.7 18 Sudeste 30 Sudeste 0 928.2 0.4 49
2019-06-01 07:00:00 15.2 16 Sudeste 30 Sudeste 0 928 0 49
2019-06-01 06:00:00 15.4 15 Sudeste 34 Sudeste 0 927.8 -0.3 48
2019-06-01 05:00:00 15.4 18 Sudeste 33 Sudeste 0 927.8 -0.3 47
2019-06-01 04:00:00 15.7 17 Sudeste 32 Sudeste 0 928 -0.3 48
2019-06-01 03:00:00 16.7 17 Sudeste 35 Sur 0 928.1 0.2 45
2019-06-01 02:00:00 17.7 21 Sudeste 38 Sudeste 0 928.1 0.6 43
2019-06-01 01:00:00 19.4 21 Sudeste 37 Sudeste 0 928.3 1.2 41
2019-06-01 00:00:00 21 12 Sudeste 21 Sur 0 927.9 0.9 29
2019-05-31 23:00:00 22.4 12 Sudeste 23 Sudeste 0 927.5 0.8 27
2019-05-31 22:00:00 24.2 8 Sur 18 Sur 0 927.1 0.1 22
2019-05-31 21:00:00 26.9 9 Sur 23 Sudeste 0 927 -0.3 17
2019-05-31 20:00:00 29.3 9 Sur 18 Sudeste 0 926.7 -1 14
2019-05-31 19:00:00 30.6 5 Oeste 26 Sudoeste 0 927 -1.2 13
2019-05-31 18:00:00 32.3 4 Este 19 Sudeste 0 927.3 -1.5 12
2019-05-31 17:00:00 31.9 9 Sur 19 Sudeste 0 927.7 -1.6 12
2019-05-31 16:00:00 30.3 6 Oeste 22 Oeste 0 928.2 -1.6 14
2019-05-31 15:00:00 29.6 8 Este 24 Este 0 928.8 -1.3 15
2019-05-31 14:00:00 28.5 6 Sudeste 20 Sudeste 0 929.3 -0.8 17
2019-05-31 13:00:00 25.7 5 Este 19 Sudeste 0 929.8 -0.4 23
2019-05-31 12:00:00 25 9 Sudeste 30 Sudeste 0 930.1 0.1 26
2019-05-31 11:00:00 22.9 12 Sudeste 25 Sudeste 0 930.1 0.1 30
2019-05-31 10:00:00 20.5 14 Sudeste 27 Sudeste 0 930.2 0.6 38
2019-05-31 09:00:00 17.7 14 Sudeste 26 Sudeste 0 930 0.6 46
2019-05-31 08:00:00 15.6 13 Sudeste 24 Este 0 930 0.5 50
2019-05-31 07:00:00 15.2 13 Este 23 Sudeste 0 929.6 -0.1 51
2019-05-31 06:00:00 15.6 13 Sudeste 21 Sudeste 0 929.4 -0.7 50
2019-05-31 05:00:00 16.1 13 Sudeste 23 Sudeste 0 929.5 -0.8 47
2019-05-31 04:00:00 16.6 13 Sudeste 25 Sudeste 0 929.7 -0.5 46
2019-05-31 03:00:00 17.3 14 Sudeste 32 Sudeste 0 930.1 0.2 43
2019-05-31 02:00:00 18.1 18 Sudeste 32 Este 0 930.3 0.8 39
2019-05-31 01:00:00 19.8 17 Sudeste 28 Sudeste 0 930.2 1.7 31
2019-05-31 00:00:00 21.3 6 Sudeste 21 Sudoeste 0 929.9 1.9 28
2019-05-30 23:00:00 23.8 8 Sudeste 25 Sur 0 929.5 1.6 24
2019-05-30 22:00:00 24.6 8 Norte 15 Norte 0 928.5 0.4 16
2019-05-30 21:00:00 27.2 3 Nordeste 15 Norte 0 928 -0.4 15
2019-05-30 20:00:00 28.1 5 Norte 24 Nordeste 0 927.9 -1.1 14
2019-05-30 19:00:00 29.1 6 Nordeste 28 Norte 0 928.1 -1.3 14
2019-05-30 18:00:00 29.7 7 Noroeste 20 Norte 0 928.4 -1.6 15
2019-05-30 17:00:00 29.1 7 Nordeste 20 Este 0 929 -1.5 15
2019-05-30 16:00:00 28.9 6 Sur 21 Sudeste 0 929.4 -1.4 17
2019-05-30 15:00:00 26.2 5 Nordeste 25 Nordeste 0 930 -0.9 18
2019-05-30 14:00:00 24.7 6 Nordeste 19 Este 0 930.5 -0.5 22
2019-05-30 13:00:00 23.2 8 Sudeste 18 Sudeste 0 930.8 -0.2 25
2019-05-30 12:00:00 21 8 Sudeste 21 Sudeste 0 930.9 0.1 30
2019-05-30 11:00:00 19.1 12 Sudeste 21 Sudeste 0 931 0.6 34
2019-05-30 10:00:00 15.8 7 Este 15 Este 0 931 1 44
2019-05-30 09:00:00 13.6 6 Nordeste 12 Nordeste 0 930.8 0.9 51
2019-05-30 08:00:00 12.3 7 Este 12 Sudeste 0 930.4 0.6 55
2019-05-30 07:00:00 11.7 5 Norte 14 Este 0 930 -0.1 56
2019-05-30 06:00:00 12.9 6 Nordeste 15 Nordeste 0 929.9 0.1 52
2019-05-30 05:00:00 13.6 5 Nordeste 19 Nordeste 0 929.8 -0.2 49
2019-05-30 04:00:00 13.6 3 Norte 19 Nordeste 0 930.1 0.3 49
2019-05-30 03:00:00 14.1 14 Nordeste 24 Nordeste 0 929.8 0.3 48
2019-05-30 02:00:00 15 8 Norte 26 Norte 0 930 1.1 45
2019-05-30 01:00:00 15.9 8 Norte 27 Nordeste 0 929.8 1.8 40
2019-05-30 00:00:00 17.9 15 Nordeste 26 Nordeste 0 929.5 2 33
2019-05-29 23:00:00 18.9 10 Nordeste 25 Nordeste 0 928.9 1.7 29
2019-05-29 22:00:00 20.7 14 Nordeste 28 Nordeste 0 928 0.9 28
2019-05-29 21:00:00 22.9 11 Nordeste 30 Norte 0 927.5 0.3 26
2019-05-29 20:00:00 23.7 19 Norte 36 Norte 0 927.2 -0.2 24
2019-05-29 19:00:00 24.6 17 Nordeste 42 Norte 0 927.1 -0.4 23
2019-05-29 18:00:00 24.4 23 Norte 43 Norte 0 927.2 -0.5 23
2019-05-29 17:00:00 23.7 21 Norte 50 Noroeste 0 927.4 -0.7 23
2019-05-29 16:00:00 22.6 22 Norte 44 Norte 0 927.5 -0.7 25
2019-05-29 15:00:00 21.3 26 Norte 44 Norte 0 927.7 -0.6 28
2019-05-29 14:00:00 20 20 Norte 46 Norte 0 928.1 -0.1 30
2019-05-29 13:00:00 18.6 23 Norte 40 Norte 0 928.2 -0.1 31
2019-05-29 12:00:00 17.3 23 Norte 51 Norte 0 928.3 0 34
2019-05-29 11:00:00 15.5 28 Norte 54 Norte 0 928.2 0.3 37
2019-05-29 10:00:00 13.8 24 Norte 50 Nordeste 0 928.3 0.8 41
2019-05-29 09:00:00 11.8 28 Nordeste 49 Nordeste 0 928.3 1.4 48
2019-05-29 08:00:00 10.2 14 Nordeste 30 Norte 0 927.9 1.2 52
2019-05-29 07:00:00 9.1 19 Norte 32 Norte 0 927.5 0.8 54
2019-05-29 06:00:00 9.2 12 Norte 21 Nordeste 0 926.9 0.4 56
2019-05-29 05:00:00 9.9 13 Norte 29 Norte 0 926.7 0.4 54
2019-05-29 04:00:00 10.7 10 Norte 21 Nordeste 0 926.7 0.3 52
2019-05-29 03:00:00 11.2 15 Norte 29 Norte 0 926.5 0.4 50
2019-05-29 02:00:00 12.2 16 Norte 27 Norte 0 926.3 1 47
2019-05-29 01:00:00 13.8 10 Norte 20 Norte 0 926.4 2.3 43
2019-05-29 00:00:00 15.8 14 Nordeste 30 Norte 0 926.1 2.9 38
2019-05-28 23:00:00 17.1 15 Nordeste 34 Norte 0 925.3 3 35
2019-05-28 22:00:00 19.1 20 Norte 38 Norte 0 924.1 2.1 31
2019-05-28 21:00:00 21.3 22 Norte 46 Norte 0 923.2 1.2 20
2019-05-28 20:00:00 23.9 18 Norte 37 Norte 0 922.3 0.4 17
2019-05-28 19:00:00 24.8 16 Norte 37 Norte 0 922 -0.1 16
2019-05-28 18:00:00 25 17 Norte 41 Noroeste 0 922 -0.3 15
2019-05-28 17:00:00 24.8 16 Norte 41 Norte 0 921.9 -0.6 15
2019-05-28 16:00:00 24.4 13 Noroeste 41 Noroeste 0 922.1 -0.7 14
2019-05-28 15:00:00 23.4 17 Norte 36 Norte 0 922.3 -0.2 15
2019-05-28 14:00:00 22.1 14 Norte 41 Noroeste 0 922.5 0.1 22
2019-05-28 13:00:00 20.8 12 Noroeste 32 Norte 0 922.8 0.4 25
2019-05-28 12:00:00 19.8 13 Norte 29 Norte 0 922.5 0.6 31
2019-05-28 11:00:00 17.9 12 Norte 24 Noroeste 0 922.4 0.9 38
2019-05-28 10:00:00 15 8 Norte -- -- -- 922.4 1.4 58
2019-05-28 09:00:00 13.2 7 Norte 13 Noroeste 0 921.9 1.4 65
2019-05-28 08:00:00 12.2 4 Norte 8 Noroeste 0 921.5 1.1 69
2019-05-28 07:00:00 12.2 3 Noroeste 7 Noroeste 0 921 0.5 68
2019-05-28 06:00:00 12.8 2 Sudoeste 9 Sudoeste 0 920.5 0 65
2019-05-28 05:00:00 13.8 3 Oeste 8 Nordeste 0 920.4 -0.2 60
2019-05-28 04:00:00 15 2 Norte 10 Norte 0 920.5 0 58
2019-05-28 03:00:00 15.1 7 Norte 15 Nordeste 0 920.5 0.1 58
2019-05-28 02:00:00 17.2 12 Norte 24 Nordeste 0 920.6 0.4 50
2019-05-28 01:00:00 18.3 10 Nordeste 23 Nordeste 0 920.5 1.3 48
2019-05-28 00:00:00 19.5 11 Nordeste 23 Nordeste 0 920.4 1.8 44